createdAt,value
2017-02-17T00:00:09.801Z,934.5
2017-02-17T00:01:22.395Z,934.51
2017-02-17T00:02:35.534Z,934.56
2017-02-17T00:03:48.692Z,934.53
2017-02-17T00:05:01.282Z,934.55
2017-02-17T00:06:28.423Z,934.55
2017-02-17T00:07:55.769Z,934.57
2017-02-17T00:09:08.347Z,934.59
2017-02-17T00:10:21.511Z,934.6
2017-02-17T00:11:34.671Z,934.6
2017-02-17T00:12:47.810Z,934.6
2017-02-17T00:14:01.160Z,934.62
2017-02-17T00:15:14.313Z,934.6
2017-02-17T00:16:26.915Z,934.58
2017-02-17T00:17:40.052Z,934.54
2017-02-17T00:18:52.843Z,934.56
2017-02-17T00:20:05.983Z,934.57
2017-02-17T00:21:18.556Z,934.56
2017-02-17T00:22:45.729Z,934.6
2017-02-17T00:23:59.077Z,934.59
2017-02-17T00:25:11.654Z,934.57
2017-02-17T00:26:38.806Z,934.59
2017-02-17T00:28:05.969Z,934.6
2017-02-17T00:29:19.128Z,934.61
2017-02-17T00:30:31.715Z,934.65
2017-02-17T00:31:44.867Z,934.68
2017-02-17T00:32:58.023Z,934.7
2017-02-17T00:34:11.164Z,934.69
2017-02-17T00:35:24.505Z,934.69
2017-02-17T00:36:37.656Z,934.7
2017-02-17T00:37:50.809Z,934.7
2017-02-17T00:39:03.959Z,934.75
2017-02-17T00:40:17.293Z,934.73
2017-02-17T00:41:29.883Z,934.76
2017-02-17T00:42:43.062Z,934.75
2017-02-17T00:43:56.195Z,934.78
2017-02-17T00:45:08.799Z,934.77
2017-02-17T00:46:20.670Z,934.74
2017-02-17T00:47:33.952Z,934.76
2017-02-17T00:48:47.247Z,934.71
2017-02-17T00:50:00.553Z,934.73
2017-02-17T00:51:13.277Z,934.74
2017-02-17T00:52:25.987Z,934.78
2017-02-17T00:53:38.692Z,934.79
2017-02-17T00:54:51.967Z,934.79
2017-02-17T00:56:05.274Z,934.8
2017-02-17T00:57:17.167Z,934.84
2017-02-17T00:58:30.476Z,934.84
2017-02-17T00:59:43.749Z,934.85
2017-02-17T01:00:57.023Z,934.84
2017-02-17T01:02:10.499Z,934.81
2017-02-17T01:03:23.223Z,934.84
2017-02-17T01:04:36.493Z,934.82
2017-02-17T01:05:49.798Z,934.84
2017-02-17T01:07:03.086Z,934.85
2017-02-17T01:08:16.571Z,934.9
2017-02-17T01:09:29.854Z,934.94
2017-02-17T01:10:43.123Z,934.99
2017-02-17T01:11:56.455Z,934.99
2017-02-17T01:13:09.735Z,934.97
2017-02-17T01:14:22.448Z,934.96
2017-02-17T01:15:35.757Z,934.99
2017-02-17T01:16:49.029Z,934.97
2017-02-17T01:18:02.316Z,935.01
2017-02-17T01:19:29.776Z,934.99
2017-02-17T01:20:43.083Z,935.03
2017-02-17T01:21:56.364Z,935.06
2017-02-17T01:23:09.101Z,935.05
2017-02-17T01:24:22.389Z,935.02
2017-02-17T01:25:35.666Z,935.04
2017-02-17T01:26:48.949Z,935.05
2017-02-17T01:28:02.264Z,935.02
2017-02-17T01:29:14.410Z,935.01
2017-02-17T01:30:27.313Z,935.05
2017-02-17T01:31:40.479Z,935.01
2017-02-17T01:32:53.634Z,935.02
2017-02-17T01:34:06.774Z,935.03
2017-02-17T01:35:19.914Z,935.01
2017-02-17T01:36:33.047Z,934.98
2017-02-17T01:37:45.625Z,934.97
2017-02-17T01:38:58.786Z,934.99
2017-02-17T01:40:11.368Z,935
2017-02-17T01:41:24.838Z,934.97
2017-02-17T01:42:38.000Z,934.97
2017-02-17T01:43:51.150Z,934.98
2017-02-17T01:45:17.729Z,934.99
2017-02-17T01:46:30.525Z,934.96
2017-02-17T01:47:43.696Z,935.01
2017-02-17T01:48:56.832Z,935
2017-02-17T01:50:09.982Z,935.04
2017-02-17T01:51:22.595Z,935.03
2017-02-17T01:52:35.729Z,935.03
2017-02-17T01:53:48.908Z,935.03
2017-02-17T01:55:02.055Z,935.03
2017-02-17T01:56:14.641Z,935.03
2017-02-17T01:57:27.252Z,935.02
2017-02-17T01:58:40.415Z,935.02
2017-02-17T01:59:53.551Z,935.03
2017-02-17T02:01:06.700Z,935.05
2017-02-17T02:02:19.576Z,935.05
2017-02-17T02:03:32.730Z,935.02
2017-02-17T02:04:45.877Z,935.02
2017-02-17T02:05:59.025Z,935.05
2017-02-17T02:07:11.061Z,935.07
2017-02-17T02:08:24.497Z,935.08
2017-02-17T02:09:37.644Z,935.08
2017-02-17T02:10:50.802Z,935.08
2017-02-17T02:12:03.949Z,935.09
2017-02-17T02:13:30.749Z,935.04
2017-02-17T02:14:43.891Z,935.05
2017-02-17T02:15:57.023Z,935.05
2017-02-17T02:17:10.165Z,935.04
2017-02-17T02:18:22.742Z,935.02
2017-02-17T02:21:03.051Z,934.99
2017-02-17T02:22:16.216Z,934.97
2017-02-17T02:23:29.571Z,934.97
2017-02-17T02:24:42.737Z,934.99
2017-02-17T02:26:09.320Z,934.94
2017-02-17T02:27:21.370Z,934.96
2017-02-17T02:28:34.505Z,934.94
2017-02-17T02:29:47.666Z,934.9
2017-02-17T02:31:00.813Z,934.89
2017-02-17T02:32:13.403Z,934.83
2017-02-17T02:33:26.011Z,934.82
2017-02-17T02:34:39.148Z,934.82
2017-02-17T02:35:51.745Z,934.77
2017-02-17T02:37:04.898Z,934.8
2017-02-17T02:38:32.046Z,934.75
2017-02-17T02:39:45.383Z,934.75
2017-02-17T02:41:12.555Z,934.74
2017-02-17T02:42:25.699Z,934.73
2017-02-17T02:43:38.843Z,934.75
2017-02-17T02:44:51.667Z,934.74
2017-02-17T02:46:03.708Z,934.76
2017-02-17T02:47:16.854Z,934.76
2017-02-17T02:48:29.999Z,934.77
2017-02-17T02:49:43.337Z,934.75
2017-02-17T02:50:56.480Z,934.77
2017-02-17T02:52:09.623Z,934.74
2017-02-17T02:53:22.761Z,934.76
2017-02-17T02:54:35.888Z,934.71
2017-02-17T02:55:48.489Z,934.7
2017-02-17T02:57:01.639Z,934.67
2017-02-17T02:58:14.787Z,934.68
2017-02-17T02:59:27.372Z,934.65
2017-02-17T03:00:40.758Z,934.62
2017-02-17T03:01:54.047Z,934.66
2017-02-17T03:03:21.308Z,934.64
2017-02-17T03:04:34.032Z,934.61
2017-02-17T03:05:47.311Z,934.58
2017-02-17T03:07:00.589Z,934.6
2017-02-17T03:08:13.331Z,934.57
2017-02-17T03:09:25.488Z,934.59
2017-02-17T03:10:38.783Z,934.56
2017-02-17T03:11:52.065Z,934.55
2017-02-17T03:13:05.361Z,934.52
2017-02-17T03:14:18.072Z,934.54
2017-02-17T03:15:31.349Z,934.52
2017-02-17T03:16:44.632Z,934.49
2017-02-17T03:17:57.907Z,934.49
2017-02-17T03:19:11.188Z,934.43
2017-02-17T03:20:24.481Z,934.4
2017-02-17T03:21:37.782Z,934.36
2017-02-17T03:22:51.253Z,934.31
2017-02-17T03:24:04.551Z,934.27
2017-02-17T03:25:17.843Z,934.26
2017-02-17T03:26:31.122Z,934.27
2017-02-17T03:27:44.600Z,934.28
2017-02-17T03:28:57.887Z,934.24
2017-02-17T03:30:10.598Z,934.22
2017-02-17T03:31:23.883Z,934.26
2017-02-17T03:32:37.163Z,934.23
2017-02-17T03:33:50.648Z,934.22
2017-02-17T03:35:03.936Z,934.21
2017-02-17T03:36:17.238Z,934.2
2017-02-17T03:37:30.523Z,934.22
2017-02-17T03:38:43.811Z,934.22
2017-02-17T03:39:57.104Z,934.2
2017-02-17T03:41:10.436Z,934.22
2017-02-17T03:42:23.705Z,934.2
2017-02-17T03:43:36.988Z,934.18
2017-02-17T03:44:50.453Z,934.17
2017-02-17T03:46:03.596Z,934.16
2017-02-17T03:47:16.168Z,934.13
2017-02-17T03:48:28.758Z,934.09
2017-02-17T03:49:42.120Z,934.08
2017-02-17T03:50:55.466Z,934.1
2017-02-17T03:52:22.623Z,934.06
2017-02-17T03:53:35.772Z,934.06
2017-02-17T03:54:49.123Z,934.05
2017-02-17T03:56:02.253Z,934.06
2017-02-17T03:57:14.875Z,934.09
2017-02-17T03:58:28.039Z,934.11
2017-02-17T03:59:55.219Z,934.07
2017-02-17T04:01:08.375Z,934.1
2017-02-17T04:02:20.401Z,934.08
2017-02-17T04:03:32.984Z,934.07
2017-02-17T04:04:46.138Z,934.04
2017-02-17T04:05:59.472Z,934.03
2017-02-17T04:07:11.501Z,933.98
2017-02-17T04:08:24.087Z,933.95
2017-02-17T04:09:37.233Z,933.93
2017-02-17T04:10:50.383Z,933.95
2017-02-17T04:12:02.959Z,933.92
2017-02-17T04:13:16.097Z,933.93
2017-02-17T04:14:28.148Z,933.94
2017-02-17T04:15:41.308Z,933.93
2017-02-17T04:16:54.673Z,933.97
2017-02-17T04:18:07.268Z,933.94
2017-02-17T04:19:20.415Z,933.97
2017-02-17T04:20:33.004Z,933.96
2017-02-17T04:21:46.349Z,933.93
2017-02-17T04:22:59.533Z,933.9
2017-02-17T04:24:12.696Z,933.86
2017-02-17T04:25:25.848Z,933.88
2017-02-17T04:26:39.034Z,933.83
2017-02-17T04:27:52.173Z,933.8
2017-02-17T04:29:05.328Z,933.79
2017-02-17T04:30:18.480Z,933.76
2017-02-17T04:31:31.754Z,933.78
2017-02-17T04:32:45.055Z,933.72
2017-02-17T04:33:58.330Z,933.7
2017-02-17T04:35:11.606Z,933.69
2017-02-17T04:36:24.920Z,933.68
2017-02-17T04:37:37.639Z,933.64
2017-02-17T04:38:51.227Z,933.62
2017-02-17T04:40:04.518Z,933.66
2017-02-17T04:41:17.815Z,933.61
2017-02-17T04:42:31.080Z,933.6
2017-02-17T04:43:58.551Z,933.57
2017-02-17T04:45:11.826Z,933.57
2017-02-17T04:47:52.354Z,933.47
2017-02-17T04:49:19.898Z,933.49
2017-02-17T04:50:32.614Z,933.51
2017-02-17T04:51:45.891Z,933.49
2017-02-17T04:52:59.182Z,933.49
2017-02-17T04:54:12.476Z,933.51
2017-02-17T04:55:25.398Z,933.51
2017-02-17T04:56:38.679Z,933.51
2017-02-17T04:57:51.960Z,933.49
2017-02-17T04:59:05.230Z,933.52
2017-02-17T05:00:17.376Z,933.5
2017-02-17T05:01:30.679Z,933.55
2017-02-17T05:02:43.954Z,933.51
2017-02-17T05:03:57.236Z,933.54
2017-02-17T05:05:10.523Z,933.49
2017-02-17T05:06:24.096Z,933.54
2017-02-17T05:07:37.416Z,933.49
2017-02-17T05:08:50.728Z,933.51
2017-02-17T05:10:17.440Z,933.49
2017-02-17T05:11:31.017Z,933.48
2017-02-17T05:12:57.704Z,933.48
2017-02-17T05:14:10.993Z,933.47
2017-02-17T05:15:24.267Z,933.46
2017-02-17T05:16:37.556Z,933.45
2017-02-17T05:17:50.831Z,933.43
2017-02-17T05:19:04.115Z,933.39
2017-02-17T05:20:16.818Z,933.4
2017-02-17T05:21:29.836Z,933.42
2017-02-17T05:22:42.570Z,933.4
2017-02-17T05:23:55.851Z,933.39
2017-02-17T05:25:08.575Z,933.4
2017-02-17T05:26:21.280Z,933.39
2017-02-17T05:27:48.552Z,933.4
2017-02-17T05:29:01.824Z,933.38
2017-02-17T05:30:14.551Z,933.39
2017-02-17T05:31:28.026Z,933.37
2017-02-17T05:32:41.297Z,933.39
2017-02-17T05:34:08.542Z,933.36
2017-02-17T05:35:21.239Z,933.38
2017-02-17T05:36:34.723Z,933.38
2017-02-17T05:37:48.025Z,933.41
2017-02-17T05:39:01.308Z,933.37
2017-02-17T05:40:14.049Z,933.39
2017-02-17T05:41:26.770Z,933.39
2017-02-17T05:42:40.038Z,933.36
2017-02-17T05:43:53.317Z,933.37
2017-02-17T05:45:06.655Z,933.31
2017-02-17T05:46:19.930Z,933.33
2017-02-17T05:47:32.983Z,933.31
2017-02-17T05:48:46.274Z,933.3
2017-02-17T05:49:59.576Z,933.27
2017-02-17T05:51:12.850Z,933.29
2017-02-17T05:52:25.567Z,933.32
2017-02-17T05:53:39.149Z,933.3
2017-02-17T05:54:52.458Z,933.29
2017-02-17T05:56:05.732Z,933.32
2017-02-17T05:57:19.015Z,933.3
2017-02-17T05:58:46.487Z,933.3
2017-02-17T05:59:59.745Z,933.29
2017-02-17T06:01:12.903Z,933.29
2017-02-17T06:02:26.048Z,933.28
2017-02-17T06:03:38.831Z,933.25
2017-02-17T06:04:52.010Z,933.29
2017-02-17T06:06:05.160Z,933.23
2017-02-17T06:07:18.323Z,933.24
2017-02-17T06:08:31.484Z,933.2
2017-02-17T06:09:44.940Z,933.18
2017-02-17T06:10:58.070Z,933.2
2017-02-17T06:12:11.205Z,933.17
2017-02-17T06:13:24.347Z,933.17
2017-02-17T06:14:37.793Z,933.17
2017-02-17T06:15:50.933Z,933.16
2017-02-17T06:17:04.080Z,933.21
2017-02-17T06:18:17.239Z,933.2
2017-02-17T06:19:30.380Z,933.22
2017-02-17T06:20:43.181Z,933.24
2017-02-17T06:21:56.312Z,933.24
2017-02-17T06:23:08.920Z,933.24
2017-02-17T06:24:21.494Z,933.29
2017-02-17T06:25:34.070Z,933.33
2017-02-17T06:26:47.206Z,933.3
2017-02-17T06:28:00.371Z,933.32
2017-02-17T06:29:13.515Z,933.33
2017-02-17T06:30:26.092Z,933.3
2017-02-17T06:31:39.456Z,933.29
2017-02-17T06:33:20.622Z,933.31
2017-02-17T06:34:33.237Z,933.3
2017-02-17T06:35:46.130Z,933.27
2017-02-17T06:36:59.300Z,933.31
2017-02-17T06:38:12.463Z,933.3
2017-02-17T06:39:25.615Z,933.3
2017-02-17T06:40:38.758Z,933.29
2017-02-17T06:41:52.099Z,933.28
2017-02-17T06:43:05.246Z,933.23
2017-02-17T06:44:32.399Z,933.22
2017-02-17T06:45:45.563Z,933.2
2017-02-17T06:46:58.692Z,933.2
2017-02-17T06:48:11.838Z,933.17
2017-02-17T06:49:24.986Z,933.19
2017-02-17T06:50:37.559Z,933.18
2017-02-17T06:51:50.997Z,933.19
2017-02-17T06:53:04.180Z,933.17
2017-02-17T06:54:17.329Z,933.17
2017-02-17T06:55:30.486Z,933.19
2017-02-17T06:56:43.854Z,933.18
2017-02-17T06:57:57.031Z,933.21
2017-02-17T06:59:10.168Z,933.18
2017-02-17T07:00:22.748Z,933.17
2017-02-17T07:01:35.904Z,933.18
2017-02-17T07:02:49.251Z,933.16
2017-02-17T07:04:02.398Z,933.15
2017-02-17T07:05:15.539Z,933.22
2017-02-17T07:06:28.695Z,933.17
2017-02-17T07:07:42.092Z,933.16
2017-02-17T07:08:55.261Z,933.19
2017-02-17T07:10:08.410Z,933.17
2017-02-17T07:11:21.547Z,933.17
2017-02-17T07:12:34.697Z,933.15
2017-02-17T07:13:47.532Z,933.18
2017-02-17T07:15:00.674Z,933.22
2017-02-17T07:16:13.268Z,933.2
2017-02-17T07:17:25.875Z,933.17
2017-02-17T07:18:39.324Z,933.21
2017-02-17T07:19:52.457Z,933.22
2017-02-17T07:21:05.032Z,933.22
2017-02-17T07:22:17.623Z,933.24
2017-02-17T07:23:30.777Z,933.24
2017-02-17T07:24:44.219Z,933.22
2017-02-17T07:25:56.824Z,933.21
2017-02-17T07:27:08.313Z,933.24
2017-02-17T07:28:20.899Z,933.25
2017-02-17T07:29:34.229Z,933.3
2017-02-17T07:30:47.359Z,933.27
2017-02-17T07:32:00.496Z,933.31
2017-02-17T07:33:13.070Z,933.32
2017-02-17T07:34:26.211Z,933.27
2017-02-17T07:35:39.554Z,933.27
2017-02-17T07:36:52.696Z,933.21
2017-02-17T07:38:19.839Z,933.3
2017-02-17T07:39:32.984Z,933.3
2017-02-17T07:40:46.323Z,933.36
2017-02-17T07:41:59.479Z,933.37
2017-02-17T07:43:12.641Z,933.42
2017-02-17T07:44:25.219Z,933.41
2017-02-17T07:45:38.659Z,933.43
2017-02-17T07:46:51.818Z,933.44
2017-02-17T07:48:04.970Z,933.46
2017-02-17T07:49:18.111Z,933.46
2017-02-17T07:50:31.288Z,933.49
2017-02-17T07:51:44.064Z,933.45
2017-02-17T07:52:57.202Z,933.48
2017-02-17T07:54:10.333Z,933.46
2017-02-17T07:55:23.519Z,933.45
2017-02-17T07:56:36.365Z,933.45
2017-02-17T07:57:49.510Z,933.48
2017-02-17T07:59:02.674Z,933.47
2017-02-17T08:00:15.828Z,933.46
2017-02-17T08:01:43.227Z,933.48
2017-02-17T08:02:56.369Z,933.48
2017-02-17T08:04:09.543Z,933.49
2017-02-17T08:05:22.677Z,933.48
2017-02-17T08:06:35.258Z,933.46
2017-02-17T08:07:48.653Z,933.51
2017-02-17T08:09:01.813Z,933.52
2017-02-17T08:10:14.945Z,933.5
2017-02-17T08:11:28.091Z,933.5
2017-02-17T08:12:41.480Z,933.47
2017-02-17T08:13:54.618Z,933.51
2017-02-17T08:15:07.789Z,933.54
2017-02-17T08:16:19.937Z,933.55
2017-02-17T08:17:33.224Z,933.57
2017-02-17T08:18:46.804Z,933.56
2017-02-17T08:19:59.525Z,933.57
2017-02-17T08:21:12.242Z,933.61
2017-02-17T08:22:24.954Z,933.61
2017-02-17T08:23:37.862Z,933.59
2017-02-17T08:24:51.152Z,933.63
2017-02-17T08:26:04.438Z,933.65
2017-02-17T08:27:17.705Z,933.65
2017-02-17T08:28:30.978Z,933.67
2017-02-17T08:29:44.001Z,933.68
2017-02-17T08:30:57.270Z,933.66
2017-02-17T08:32:10.548Z,933.69
2017-02-17T08:33:23.862Z,933.7
2017-02-17T08:34:37.346Z,933.68
2017-02-17T08:35:50.625Z,933.74
2017-02-17T08:37:03.943Z,933.73
2017-02-17T08:38:17.239Z,933.75
2017-02-17T08:39:29.946Z,933.77
2017-02-17T08:40:42.856Z,933.76
2017-02-17T08:41:56.128Z,933.8
2017-02-17T08:43:09.404Z,933.77
2017-02-17T08:44:22.122Z,933.79
2017-02-17T08:45:35.662Z,933.78
2017-02-17T08:46:48.935Z,933.78
2017-02-17T08:48:02.213Z,933.81
2017-02-17T08:49:15.491Z,933.81
2017-02-17T08:50:27.655Z,933.82
2017-02-17T08:51:41.240Z,933.81
2017-02-17T08:52:54.512Z,933.87
2017-02-17T08:54:07.781Z,933.87
2017-02-17T08:55:20.495Z,933.9
2017-02-17T08:56:34.080Z,933.9
2017-02-17T08:57:46.790Z,933.88
2017-02-17T08:59:00.083Z,933.9
2017-02-17T09:00:13.338Z,933.94
2017-02-17T09:01:26.476Z,934
2017-02-17T09:02:39.251Z,933.98
2017-02-17T09:03:52.409Z,933.99
2017-02-17T09:05:05.580Z,934.04
2017-02-17T09:06:18.164Z,934.03
2017-02-17T09:07:31.613Z,934.02
2017-02-17T09:08:44.757Z,934.04
2017-02-17T09:09:57.900Z,934.03
2017-02-17T09:11:11.060Z,934.07
2017-02-17T09:12:24.186Z,934.11
2017-02-17T09:13:37.594Z,934.1
2017-02-17T09:14:50.745Z,934.12
2017-02-17T09:16:03.357Z,934.12
2017-02-17T09:17:16.494Z,934.14
2017-02-17T09:18:29.826Z,934.19
2017-02-17T09:19:42.970Z,934.19
2017-02-17T09:21:08.992Z,934.24
2017-02-17T09:22:21.584Z,934.27
2017-02-17T09:23:34.913Z,934.28
2017-02-17T09:24:48.082Z,934.27
2017-02-17T09:26:01.221Z,934.29
2017-02-17T09:27:28.366Z,934.29
2017-02-17T09:28:41.702Z,934.23
2017-02-17T09:29:54.858Z,934.28
2017-02-17T09:31:08.017Z,934.32
2017-02-17T09:32:19.488Z,934.36
2017-02-17T09:33:32.634Z,934.36
2017-02-17T09:34:45.974Z,934.34
2017-02-17T09:35:59.123Z,934.33
2017-02-17T09:37:11.698Z,934.35
2017-02-17T09:38:24.844Z,934.36
2017-02-17T09:39:38.236Z,934.36
2017-02-17T09:40:51.415Z,934.32
2017-02-17T09:42:04.565Z,934.31
2017-02-17T09:43:17.707Z,934.29
2017-02-17T09:44:30.859Z,934.3
2017-02-17T09:45:43.774Z,934.28
2017-02-17T09:46:57.055Z,934.3
2017-02-17T09:48:24.322Z,934.31
2017-02-17T09:51:04.875Z,934.32
2017-02-17T09:52:17.583Z,934.33
2017-02-17T09:53:30.319Z,934.32
2017-02-17T09:54:43.043Z,934.33
2017-02-17T09:55:55.991Z,934.34
2017-02-17T09:57:08.694Z,934.37
2017-02-17T09:58:21.403Z,934.37
2017-02-17T09:59:34.702Z,934.37
2017-02-17T10:02:15.476Z,934.42
2017-02-17T10:03:28.755Z,934.41
2017-02-17T10:04:42.028Z,934.4
2017-02-17T10:05:55.368Z,934.4
2017-02-17T10:07:08.859Z,934.4
2017-02-17T10:08:22.140Z,934.41
2017-02-17T10:09:35.429Z,934.4
2017-02-17T10:10:48.719Z,934.43
2017-02-17T10:12:02.300Z,934.44
2017-02-17T10:13:15.018Z,934.42
2017-02-17T10:14:28.306Z,934.44
2017-02-17T10:15:41.603Z,934.43
2017-02-17T10:16:54.913Z,934.44
2017-02-17T10:18:08.406Z,934.4
2017-02-17T10:19:21.680Z,934.42
2017-02-17T10:20:34.967Z,934.39
2017-02-17T10:21:48.261Z,934.42
2017-02-17T10:23:01.808Z,934.44
2017-02-17T10:24:15.121Z,934.46
2017-02-17T10:25:28.389Z,934.46
2017-02-17T10:26:41.670Z,934.49
2017-02-17T10:27:54.374Z,934.46
2017-02-17T10:29:07.850Z,934.49
2017-02-17T10:30:35.091Z,934.45
2017-02-17T10:31:48.230Z,934.41
2017-02-17T10:33:01.373Z,934.41
2017-02-17T10:34:14.708Z,934.43
2017-02-17T10:35:27.289Z,934.41
2017-02-17T10:36:40.435Z,934.43
2017-02-17T10:37:53.590Z,934.49
2017-02-17T10:39:06.990Z,934.51
2017-02-17T10:40:20.125Z,934.53
2017-02-17T10:41:33.259Z,934.52
2017-02-17T10:42:46.417Z,934.53
2017-02-17T10:43:59.805Z,934.55
2017-02-17T10:45:12.957Z,934.57
2017-02-17T10:46:25.564Z,934.54
2017-02-17T10:47:38.704Z,934.62
2017-02-17T10:48:51.284Z,934.6
2017-02-17T10:50:18.732Z,934.59
2017-02-17T10:51:31.868Z,934.61
2017-02-17T10:52:45.009Z,934.6
2017-02-17T10:53:57.600Z,934.59
2017-02-17T10:55:11.046Z,934.61
2017-02-17T10:56:24.189Z,934.64
2017-02-17T10:57:37.326Z,934.62
2017-02-17T10:58:50.487Z,934.61
2017-02-17T11:00:03.676Z,934.6
2017-02-17T11:01:16.480Z,934.6
2017-02-17T11:02:29.644Z,934.64
2017-02-17T11:03:56.809Z,934.6
2017-02-17T11:05:10.014Z,934.65
2017-02-17T11:06:37.209Z,934.63
2017-02-17T11:07:50.390Z,934.65
2017-02-17T11:09:03.609Z,934.65
2017-02-17T11:10:16.885Z,934.7
2017-02-17T11:11:29.364Z,934.71
2017-02-17T11:12:42.686Z,934.74
2017-02-17T11:13:56.008Z,934.73
2017-02-17T11:15:08.815Z,934.75
2017-02-17T11:16:22.261Z,934.77
2017-02-17T11:17:35.555Z,934.78
2017-02-17T11:18:49.087Z,934.75
2017-02-17T11:20:02.050Z,934.75
2017-02-17T11:21:14.520Z,934.75
2017-02-17T11:22:28.404Z,934.76
2017-02-17T11:23:41.996Z,934.75
2017-02-17T11:24:55.663Z,934.76
2017-02-17T11:26:09.328Z,934.78
2017-02-17T11:27:22.881Z,934.79
2017-02-17T11:28:36.402Z,934.79
2017-02-17T11:29:49.681Z,934.8
2017-02-17T11:31:02.964Z,934.8
2017-02-17T11:32:16.246Z,934.79
2017-02-17T11:33:29.529Z,934.79
2017-02-17T11:34:42.824Z,934.81
2017-02-17T11:35:56.098Z,934.84
2017-02-17T11:37:08.824Z,934.86
2017-02-17T11:38:22.093Z,934.86
2017-02-17T11:39:35.371Z,934.9
2017-02-17T11:40:48.657Z,934.87
2017-02-17T11:42:01.942Z,934.91
2017-02-17T11:43:14.670Z,934.88
2017-02-17T11:44:27.736Z,934.87
2017-02-17T11:45:41.010Z,934.89
2017-02-17T11:46:54.290Z,934.88
2017-02-17T11:48:07.576Z,934.87
2017-02-17T11:49:35.088Z,934.9
2017-02-17T11:51:01.785Z,934.91
2017-02-17T11:52:15.090Z,934.9
2017-02-17T11:53:27.278Z,934.87
2017-02-17T11:54:41.091Z,934.87
2017-02-17T11:55:54.595Z,934.89
2017-02-17T11:57:08.138Z,934.97
2017-02-17T11:58:20.574Z,934.93
2017-02-17T11:59:33.553Z,934.93
2017-02-17T12:00:46.827Z,934.93
2017-02-17T12:01:59.979Z,934.88
2017-02-17T12:03:12.016Z,934.87
2017-02-17T12:04:24.049Z,934.84
2017-02-17T12:05:37.490Z,934.86
2017-02-17T12:06:50.657Z,934.85
2017-02-17T12:08:03.806Z,934.85
2017-02-17T12:09:16.950Z,934.83
2017-02-17T12:10:30.110Z,934.79
2017-02-17T12:11:43.588Z,934.79
2017-02-17T12:12:56.176Z,934.76
2017-02-17T12:14:08.763Z,934.78
2017-02-17T12:15:21.361Z,934.76
2017-02-17T12:16:34.323Z,934.71
2017-02-17T12:18:01.645Z,934.66
2017-02-17T12:19:14.962Z,934.73
2017-02-17T12:20:28.143Z,934.69
2017-02-17T12:22:23.560Z,934.68
2017-02-17T12:23:36.705Z,934.69
2017-02-17T12:24:49.861Z,934.67
2017-02-17T12:26:02.482Z,934.69
2017-02-17T12:27:15.674Z,934.68
2017-02-17T12:28:29.143Z,934.67
2017-02-17T12:29:42.333Z,934.62
2017-02-17T12:30:55.537Z,934.63
2017-02-17T12:32:08.192Z,934.65
2017-02-17T12:33:21.103Z,934.62
2017-02-17T12:34:34.439Z,934.65
2017-02-17T12:35:47.679Z,934.63
2017-02-17T12:37:00.516Z,934.59
2017-02-17T12:39:41.472Z,934.64
2017-02-17T12:40:54.940Z,934.62
2017-02-17T12:42:08.366Z,934.65
2017-02-17T12:43:21.814Z,934.64
2017-02-17T12:44:34.841Z,934.59
2017-02-17T12:45:47.692Z,934.55
2017-02-17T12:47:15.074Z,934.66
2017-02-17T12:48:27.658Z,934.58
2017-02-17T12:49:41.167Z,934.62
2017-02-17T12:50:54.327Z,934.63
2017-02-17T12:52:07.489Z,934.52
2017-02-17T12:53:20.641Z,934.52
2017-02-17T12:54:33.790Z,934.52
2017-02-17T12:55:46.924Z,934.49
2017-02-17T12:57:00.094Z,934.54
2017-02-17T12:58:13.265Z,934.54
2017-02-17T12:59:26.433Z,934.53
2017-02-17T13:00:39.233Z,934.51
2017-02-17T13:01:51.817Z,934.56
2017-02-17T13:03:03.849Z,934.57
2017-02-17T13:04:16.442Z,934.51
2017-02-17T13:05:29.817Z,934.49
2017-02-17T13:06:42.958Z,934.46
2017-02-17T13:07:56.140Z,934.44
2017-02-17T13:09:08.172Z,934.49
2017-02-17T13:10:21.303Z,934.49
2017-02-17T13:11:34.115Z,934.53
2017-02-17T13:12:47.296Z,934.5
2017-02-17T13:13:59.889Z,934.46
2017-02-17T13:15:12.471Z,934.45
2017-02-17T13:16:25.620Z,934.43
2017-02-17T13:17:38.788Z,934.43
2017-02-17T13:18:51.958Z,934.46
2017-02-17T13:20:05.119Z,934.43
2017-02-17T13:21:17.708Z,934.43
2017-02-17T13:23:56.899Z,934.41
2017-02-17T13:25:10.044Z,934.39
2017-02-17T13:26:37.389Z,934.4
2017-02-17T13:27:50.532Z,934.42
2017-02-17T13:29:03.700Z,934.38
2017-02-17T13:30:16.316Z,934.36
2017-02-17T13:31:29.484Z,934.31
2017-02-17T13:32:42.936Z,934.32
2017-02-17T13:33:56.093Z,934.29
2017-02-17T13:35:08.709Z,934.31
2017-02-17T13:36:21.311Z,934.34
2017-02-17T13:37:34.664Z,934.26
2017-02-17T13:38:47.861Z,934.26
2017-02-17T13:41:27.627Z,934.22
2017-02-17T13:42:40.592Z,934.28
2017-02-17T13:43:53.216Z,934.2
2017-02-17T13:45:06.362Z,934.24
2017-02-17T13:48:00.875Z,934.17
2017-02-17T13:49:14.026Z,934.2
2017-02-17T13:50:27.205Z,934.19
2017-02-17T13:51:40.370Z,934.2
2017-02-17T13:52:53.522Z,934.17
2017-02-17T13:54:06.668Z,934.18
2017-02-17T13:56:46.467Z,934.13
2017-02-17T13:57:59.662Z,934.15
2017-02-17T13:59:12.818Z,934.11
2017-02-17T14:00:25.989Z,934.09
2017-02-17T14:01:39.157Z,934.07
2017-02-17T14:02:52.323Z,934.13
2017-02-17T14:04:04.373Z,934.15
2017-02-17T14:05:17.003Z,934.14
2017-02-17T14:06:29.607Z,934.1
2017-02-17T14:07:42.749Z,934.15
2017-02-17T14:08:55.902Z,934.14
2017-02-17T14:10:09.388Z,934.12
2017-02-17T14:11:22.552Z,934.09
2017-02-17T14:12:35.763Z,934.08
2017-02-17T14:14:02.986Z,934.03
2017-02-17T14:15:15.824Z,934.04
2017-02-17T14:16:29.391Z,934.04
2017-02-17T14:17:42.937Z,934.04
2017-02-17T14:18:56.404Z,934.04
2017-02-17T14:20:09.718Z,934.04
2017-02-17T14:21:50.458Z,934
2017-02-17T14:23:04.002Z,933.95
2017-02-17T14:24:17.617Z,933.99
2017-02-17T14:25:31.419Z,933.94
2017-02-17T14:26:58.957Z,933.87
2017-02-17T14:28:12.528Z,933.88
2017-02-17T14:29:26.522Z,933.93
2017-02-17T14:30:40.302Z,933.9
2017-02-17T14:31:53.765Z,933.92
2017-02-17T14:34:33.787Z,933.92
2017-02-17T14:35:47.264Z,933.87
2017-02-17T14:37:00.550Z,933.91
2017-02-17T14:38:13.292Z,933.93
2017-02-17T14:39:26.581Z,933.88
2017-02-17T14:40:39.879Z,933.9
2017-02-17T14:41:52.890Z,933.92
2017-02-17T14:43:06.177Z,933.86
2017-02-17T14:44:19.471Z,933.87
2017-02-17T14:45:32.773Z,933.92
2017-02-17T14:46:46.276Z,933.89
2017-02-17T14:47:59.000Z,933.81
2017-02-17T14:49:11.731Z,933.83
2017-02-17T14:50:24.451Z,933.76
2017-02-17T14:51:37.741Z,933.75
2017-02-17T14:52:51.336Z,933.73
2017-02-17T14:54:04.051Z,933.73
2017-02-17T14:55:16.821Z,933.69
2017-02-17T14:56:30.113Z,933.69
2017-02-17T14:57:43.040Z,933.69
2017-02-17T14:58:55.804Z,933.7
2017-02-17T15:00:09.106Z,933.73
2017-02-17T15:01:21.717Z,933.71
2017-02-17T15:02:34.876Z,933.72
2017-02-17T15:03:48.402Z,933.69
2017-02-17T15:05:01.562Z,933.66
2017-02-17T15:06:14.718Z,933.64
2017-02-17T15:07:27.323Z,933.68
2017-02-17T15:08:40.734Z,933.65
2017-02-17T15:09:53.882Z,933.63
2017-02-17T15:11:07.044Z,933.61
2017-02-17T15:12:20.197Z,933.56
2017-02-17T15:13:32.804Z,933.58
2017-02-17T15:14:46.312Z,933.56
2017-02-17T15:15:58.917Z,933.58
2017-02-17T15:17:12.073Z,933.52
2017-02-17T15:18:24.657Z,933.57
2017-02-17T15:19:37.810Z,933.58
2017-02-17T15:20:50.961Z,933.53
2017-02-17T15:22:04.113Z,933.49
2017-02-17T15:23:17.262Z,933.44
2017-02-17T15:24:30.419Z,933.43
2017-02-17T15:25:43.581Z,933.48
2017-02-17T15:26:56.200Z,933.5
2017-02-17T15:29:36.533Z,933.46
2017-02-17T15:30:49.123Z,933.46
2017-02-17T15:32:02.267Z,933.47
2017-02-17T15:33:15.410Z,933.45
2017-02-17T15:34:28.548Z,933.4
2017-02-17T15:35:42.001Z,933.4
2017-02-17T15:37:09.149Z,933.41
2017-02-17T15:38:21.741Z,933.35
2017-02-17T15:39:34.896Z,933.37
2017-02-17T15:41:02.413Z,933.33
2017-02-17T15:42:15.587Z,933.26